sensor_id;sensor_type;location;lat;lon;timestamp;pressure;altitude;pressure_sealevel;temperature;humidity
24962;BME280;12992;50.884;13.668;2023-02-15T00:01:50;98704.16;;;0.48;100.00
24962;BME280;12992;50.884;13.668;2023-02-15T00:04:19;98708.19;;;0.52;100.00
24962;BME280;12992;50.884;13.668;2023-02-15T00:06:45;98701.00;;;0.52;100.00
24962;BME280;12992;50.884;13.668;2023-02-15T00:09:10;98705.69;;;0.50;100.00
24962;BME280;12992;50.884;13.668;2023-02-15T00:11:37;98698.28;;;0.44;100.00
24962;BME280;12992;50.884;13.668;2023-02-15T00:14:07;98707.53;;;0.50;100.00
24962;BME280;12992;50.884;13.668;2023-02-15T00:16:33;98700.16;;;0.52;100.00
24962;BME280;12992;50.884;13.668;2023-02-15T00:18:59;98692.94;;;0.44;100.00
24962;BME280;12992;50.884;13.668;2023-02-15T00:21:28;98683.28;;;0.34;100.00
24962;BME280;12992;50.884;13.668;2023-02-15T00:23:54;98675.19;;;0.25;100.00
24962;BME280;12992;50.884;13.668;2023-02-15T00:26:19;98690.66;;;0.32;100.00
24962;BME280;12992;50.884;13.668;2023-02-15T00:28:44;98682.63;;;0.32;100.00
24962;BME280;12992;50.884;13.668;2023-02-15T00:31:11;98684.06;;;0.26;100.00
24962;BME280;12992;50.884;13.668;2023-02-15T00:33:37;98682.50;;;0.15;100.00
24962;BME280;12992;50.884;13.668;2023-02-15T00:36:05;98693.94;;;0.25;100.00
24962;BME280;12992;50.884;13.668;2023-02-15T00:38:31;98696.69;;;0.34;100.00
24962;BME280;12992;50.884;13.668;2023-02-15T00:40:58;98702.44;;;0.39;100.00
24962;BME280;12992;50.884;13.668;2023-02-15T00:43:25;98690.50;;;0.33;100.00
24962;BME280;12992;50.884;13.668;2023-02-15T00:45:50;98679.38;;;0.20;100.00
24962;BME280;12992;50.884;13.668;2023-02-15T00:48:17;98671.09;;;0.13;100.00
24962;BME280;12992;50.884;13.668;2023-02-15T00:50:45;98691.13;;;0.27;100.00
24962;BME280;12992;50.884;13.668;2023-02-15T00:53:11;98688.81;;;0.32;100.00
24962;BME280;12992;50.884;13.668;2023-02-15T00:55:36;98686.28;;;0.31;100.00
24962;BME280;12992;50.884;13.668;2023-02-15T00:58:02;98679.41;;;0.28;100.00
24962;BME280;12992;50.884;13.668;2023-02-15T01:00:27;98689.88;;;0.39;100.00
24962;BME280;12992;50.884;13.668;2023-02-15T01:02:52;98701.09;;;0.43;100.00
24962;BME280;12992;50.884;13.668;2023-02-15T01:05:18;98686.41;;;0.47;100.00
24962;BME280;12992;50.884;13.668;2023-02-15T01:07:43;98675.63;;;0.39;100.00
24962;BME280;12992;50.884;13.668;2023-02-15T01:10:09;98667.06;;;0.35;100.00
24962;BME280;12992;50.884;13.668;2023-02-15T01:12:34;98677.16;;;0.41;100.00
24962;BME280;12992;50.884;13.668;2023-02-15T01:14:59;98641.06;;;0.27;100.00
24962;BME280;12992;50.884;13.668;2023-02-15T01:17:25;98644.38;;;0.21;100.00
24962;BME280;12992;50.884;13.668;2023-02-15T01:19:50;98635.59;;;0.11;100.00
24962;BME280;12992;50.884;13.668;2023-02-15T01:22:18;98626.00;;;0.01;100.00
24962;BME280;12992;50.884;13.668;2023-02-15T01:24:44;98628.81;;;-0.01;100.00
24962;BME280;12992;50.884;13.668;2023-02-15T01:27:09;98617.69;;;-0.14;100.00
24962;BME280;12992;50.884;13.668;2023-02-15T01:29:35;98636.50;;;-0.06;100.00
24962;BME280;12992;50.884;13.668;2023-02-15T01:32:00;98628.06;;;-0.11;100.00
24962;BME280;12992;50.884;13.668;2023-02-15T01:34:25;98654.66;;;0.08;100.00
24962;BME280;12992;50.884;13.668;2023-02-15T01:36:50;98670.50;;;0.19;100.00
24962;BME280;12992;50.884;13.668;2023-02-15T01:39:16;98668.16;;;0.24;100.00
24962;BME280;12992;50.884;13.668;2023-02-15T01:41:41;98663.47;;;0.26;100.00
24962;BME280;12992;50.884;13.668;2023-02-15T01:50:06;98645.06;;;0.23;100.00
24962;BME280;12992;50.884;13.668;2023-02-15T01:52:37;98635.34;;;0.22;100.00
24962;BME280;12992;50.884;13.668;2023-02-15T01:55:04;98619.03;;;0.16;100.00
24962;BME280;12992;50.884;13.668;2023-02-15T01:57:30;98619.03;;;0.16;100.00
24962;BME280;12992;50.884;13.668;2023-02-15T01:59:58;98604.81;;;0.15;100.00
24962;BME280;12992;50.884;13.668;2023-02-15T02:02:26;98595.22;;;0.05;100.00
24962;BME280;12992;50.884;13.668;2023-02-15T02:04:56;98588.81;;;-0.03;100.00
24962;BME280;12992;50.884;13.668;2023-02-15T02:07:27;98594.69;;;0.01;100.00
24962;BME280;12992;50.884;13.668;2023-02-15T02:09:52;98591.53;;;0.06;100.00
24962;BME280;12992;50.884;13.668;2023-02-15T02:12:23;98566.13;;;-0.16;100.00
24962;BME280;12992;50.884;13.668;2023-02-15T02:14:49;98577.97;;;-0.19;100.00
24962;BME280;12992;50.884;13.668;2023-02-15T02:17:22;98566.69;;;-0.31;100.00
24962;BME280;12992;50.884;13.668;2023-02-15T02:20:15;98570.22;;;-0.30;100.00
24962;BME280;12992;50.884;13.668;2023-02-15T02:25:49;98574.41;;;-0.28;100.00
24962;BME280;12992;50.884;13.668;2023-02-15T02:34:16;98566.25;;;-0.26;100.00
24962;BME280;12992;50.884;13.668;2023-02-15T02:36:55;98573.78;;;-0.21;100.00
24962;BME280;12992;50.884;13.668;2023-02-15T02:39:40;98548.28;;;-0.34;100.00
24962;BME280;12992;50.884;13.668;2023-02-15T02:42:49;98561.84;;;-0.27;100.00
24962;BME280;12992;50.884;13.668;2023-02-15T02:45:28;98555.31;;;-0.33;100.00
24962;BME280;12992;50.884;13.668;2023-02-15T02:48:09;98562.78;;;-0.36;100.00
24962;BME280;12992;50.884;13.668;2023-02-15T02:50:39;98565.41;;;-0.26;100.00
24962;BME280;12992;50.884;13.668;2023-02-15T02:53:05;98554.47;;;-0.33;100.00
24962;BME280;12992;50.884;13.668;2023-02-15T02:58:38;98561.66;;;-0.34;100.00
24962;BME280;12992;50.884;13.668;2023-02-15T03:01:19;98535.78;;;-0.51;100.00
24962;BME280;12992;50.884;13.668;2023-02-15T03:03:52;98569.38;;;-0.31;100.00
24962;BME280;12992;50.884;13.668;2023-02-15T03:06:26;98577.13;;;-0.19;100.00
24962;BME280;12992;50.884;13.668;2023-02-15T03:09:01;98570.31;;;-0.14;100.00
24962;BME280;12992;50.884;13.668;2023-02-15T03:11:29;98576.91;;;-0.08;100.00
24962;BME280;12992;50.884;13.668;2023-02-15T03:13:55;98567.16;;;-0.09;100.00
24962;BME280;12992;50.884;13.668;2023-02-15T03:16:21;98567.50;;;-0.12;100.00
24962;BME280;12992;50.884;13.668;2023-02-15T03:19:17;98556.44;;;-0.17;100.00
24962;BME280;12992;50.884;13.668;2023-02-15T03:21:49;98542.28;;;-0.28;100.00
24962;BME280;12992;50.884;13.668;2023-02-15T03:24:26;98557.72;;;-0.21;100.00
24962;BME280;12992;50.884;13.668;2023-02-15T03:26:54;98550.38;;;-0.19;100.00
24962;BME280;12992;50.884;13.668;2023-02-15T03:29:24;98552.75;;;-0.16;100.00
24962;BME280;12992;50.884;13.668;2023-02-15T03:31:56;98554.59;;;-0.17;100.00
24962;BME280;12992;50.884;13.668;2023-02-15T03:34:24;98539.16;;;-0.23;100.00
24962;BME280;12992;50.884;13.668;2023-02-15T03:36:56;98533.22;;;-0.35;100.00
24962;BME280;12992;50.884;13.668;2023-02-15T03:39:52;98535.34;;;-0.38;100.00
24962;BME280;12992;50.884;13.668;2023-02-15T03:42:25;98557.38;;;-0.26;100.00
24962;BME280;12992;50.884;13.668;2023-02-15T03:44:58;98551.03;;;-0.25;100.00
24962;BME280;12992;50.884;13.668;2023-02-15T03:47:31;98559.72;;;-0.23;100.00
24962;BME280;12992;50.884;13.668;2023-02-15T03:50:04;98533.69;;;-0.39;100.00
24962;BME280;12992;50.884;13.668;2023-02-15T03:52:51;98547.91;;;-0.39;100.00
24962;BME280;12992;50.884;13.668;2023-02-15T03:55:17;98540.53;;;-0.37;100.00
24962;BME280;12992;50.884;13.668;2023-02-15T03:57:43;98547.97;;;-0.31;100.00
24962;BME280;12992;50.884;13.668;2023-02-15T04:00:28;98544.91;;;-0.36;100.00
24962;BME280;12992;50.884;13.668;2023-02-15T04:03:42;98540.53;;;-0.37;100.00
24962;BME280;12992;50.884;13.668;2023-02-15T04:06:08;98542.47;;;-0.47;100.00
24962;BME280;12992;50.884;13.668;2023-02-15T04:08:34;98544.16;;;-0.46;100.00
24962;BME280;12992;50.884;13.668;2023-02-15T04:11:18;98531.88;;;-0.57;100.00
24962;BME280;12992;50.884;13.668;2023-02-15T04:13:43;98529.13;;;-0.65;100.00
24962;BME280;12992;50.884;13.668;2023-02-15T04:16:08;98538.06;;;-0.56;100.00
24962;BME280;12992;50.884;13.668;2023-02-15T04:18:38;98537.22;;;-0.57;100.00
24962;BME280;12992;50.884;13.668;2023-02-15T04:21:25;98552.03;;;-0.44;100.00
24962;BME280;12992;50.884;13.668;2023-02-15T04:24:10;98537.22;;;-0.57;100.00
24962;BME280;12992;50.884;13.668;2023-02-15T04:26:54;98549.50;;;-0.46;100.00
24962;BME280;12992;50.884;13.668;2023-02-15T04:29:22;98539.75;;;-0.55;100.00
24962;BME280;12992;50.884;13.668;2023-02-15T04:31:48;98540.19;;;-0.42;100.00
24962;BME280;12992;50.884;13.668;2023-02-15T04:34:14;98540.03;;;-0.40;100.00
24962;BME280;12992;50.884;13.668;2023-02-15T04:36:39;98523.69;;;-0.55;100.00
24962;BME280;12992;50.884;13.668;2023-02-15T04:39:06;98522.34;;;-0.59;100.00
24962;BME280;12992;50.884;13.668;2023-02-15T04:41:32;98520.50;;;-0.59;100.00
24962;BME280;12992;50.884;13.668;2023-02-15T04:43:57;98506.22;;;-0.67;100.00
24962;BME280;12992;50.884;13.668;2023-02-15T04:46:24;98500.56;;;-0.82;100.00
24962;BME280;12992;50.884;13.668;2023-02-15T04:48:50;98516.53;;;-0.72;100.00
24962;BME280;12992;50.884;13.668;2023-02-15T04:51:15;98530.53;;;-0.61;100.00
24962;BME280;12992;50.884;13.668;2023-02-15T04:53:40;98518.28;;;-0.63;100.00
24962;BME280;12992;50.884;13.668;2023-02-15T04:56:06;98538.28;;;-0.49;100.00
24962;BME280;12992;50.884;13.668;2023-02-15T04:58:31;98527.44;;;-0.48;100.00
24962;BME280;12992;50.884;13.668;2023-02-15T05:00:57;98519.34;;;-0.56;100.00
24962;BME280;12992;50.884;13.668;2023-02-15T05:03:23;98528.44;;;-0.49;100.00
24962;BME280;12992;50.884;13.668;2023-02-15T05:05:49;98507.63;;;-0.55;100.00
24962;BME280;12992;50.884;13.668;2023-02-15T05:08:14;98503.53;;;-0.67;100.00
24962;BME280;12992;50.884;13.668;2023-02-15T05:10:39;98497.44;;;-0.77;100.00
24962;BME280;12992;50.884;13.668;2023-02-15T05:13:05;98510.19;;;-0.71;100.00
24962;BME280;12992;50.884;13.668;2023-02-15T05:15:30;98522.34;;;-0.59;100.00
24962;BME280;12992;50.884;13.668;2023-02-15T05:17:56;98516.50;;;-0.54;100.00
24962;BME280;12992;50.884;13.668;2023-02-15T05:20:21;98507.63;;;-0.55;100.00
24962;BME280;12992;50.884;13.668;2023-02-15T05:22:46;98509.19;;;-0.52;100.00
24962;BME280;12992;50.884;13.668;2023-02-15T05:25:12;98491.53;;;-0.63;100.00
24962;BME280;12992;50.884;13.668;2023-02-15T05:27:56;98492.53;;;-0.64;100.00
24962;BME280;12992;50.884;13.668;2023-02-15T05:30:39;98488.84;;;-0.63;100.00
24962;BME280;12992;50.884;13.668;2023-02-15T05:33:08;98513.53;;;-0.51;100.00
24962;BME280;12992;50.884;13.668;2023-02-15T05:35:34;98493.53;;;-0.65;100.00
24962;BME280;12992;50.884;13.668;2023-02-15T05:37:59;98494.00;;;-0.70;100.00
24962;BME280;12992;50.884;13.668;2023-02-15T05:40:25;98489.78;;;-0.72;100.00
24962;BME280;12992;50.884;13.668;2023-02-15T05:42:50;98499.25;;;-0.60;100.00
24962;BME280;12992;50.884;13.668;2023-02-15T05:45:15;98492.53;;;-0.64;100.00
24962;BME280;12992;50.884;13.668;2023-02-15T05:47:41;98495.03;;;-0.63;100.00
24962;BME280;12992;50.884;13.668;2023-02-15T05:50:07;98500.56;;;-0.64;100.00
24962;BME280;12992;50.884;13.668;2023-02-15T05:52:33;98505.13;;;-0.57;100.00
24962;BME280;12992;50.884;13.668;2023-02-15T05:54:58;98518.94;;;-0.43;100.00
24962;BME280;12992;50.884;13.668;2023-02-15T05:57:25;98518.28;;;-0.37;100.00
24962;BME280;12992;50.884;13.668;2023-02-15T05:59:51;98524.72;;;-0.30;100.00
24962;BME280;12992;50.884;13.668;2023-02-15T06:02:16;98529.13;;;-0.21;100.00
24962;BME280;12992;50.884;13.668;2023-02-15T06:04:41;98499.66;;;-0.47;100.00
24962;BME280;12992;50.884;13.668;2023-02-15T06:07:07;98513.94;;;-0.38;100.00
24962;BME280;12992;50.884;13.668;2023-02-15T06:09:32;98511.94;;;-0.36;100.00
24962;BME280;12992;50.884;13.668;2023-02-15T06:11:57;98518.84;;;-0.34;100.00
24962;BME280;12992;50.884;13.668;2023-02-15T06:14:22;98523.41;;;-0.26;100.00
24962;BME280;12992;50.884;13.668;2023-02-15T06:16:48;98504.41;;;-0.41;100.00
24962;BME280;12992;50.884;13.668;2023-02-15T06:19:13;98502.19;;;-0.45;100.00
24962;BME280;12992;50.884;13.668;2023-02-15T06:21:39;98492.97;;;-0.51;100.00
24962;BME280;12992;50.884;13.668;2023-02-15T06:24:04;98513.66;;;-0.35;100.00
24962;BME280;12992;50.884;13.668;2023-02-15T06:26:29;98510.66;;;-0.32;100.00
24962;BME280;12992;50.884;13.668;2023-02-15T06:28:55;98502.41;;;-0.39;100.00
24962;BME280;12992;50.884;13.668;2023-02-15T06:31:20;98501.56;;;-0.39;100.00
24962;BME280;12992;50.884;13.668;2023-02-15T06:33:45;98502.41;;;-0.39;100.00
24962;BME280;12992;50.884;13.668;2023-02-15T06:36:11;98483.94;;;-0.50;100.00
24962;BME280;12992;50.884;13.668;2023-02-15T06:38:37;98497.66;;;-0.45;100.00
24962;BME280;12992;50.884;13.668;2023-02-15T06:41:03;98498.72;;;-0.38;100.00
24962;BME280;12992;50.884;13.668;2023-02-15T06:43:28;98490.63;;;-0.46;100.00
24962;BME280;12992;50.884;13.668;2023-02-15T06:45:53;98493.84;;;-0.42;100.00
24962;BME280;12992;50.884;13.668;2023-02-15T06:48:18;98498.44;;;-0.35;100.00
24962;BME280;12992;50.884;13.668;2023-02-15T06:50:44;98506.81;;;-0.30;100.00
24962;BME280;12992;50.884;13.668;2023-02-15T06:53:09;98505.13;;;-0.31;100.00
24962;BME280;12992;50.884;13.668;2023-02-15T06:55:34;98502.13;;;-0.28;100.00
24962;BME280;12992;50.884;13.668;2023-02-15T06:58:00;98501.34;;;-0.20;100.00
24962;BME280;12992;50.884;13.668;2023-02-15T07:00:25;98512.09;;;-0.12;100.00
24962;BME280;12992;50.884;13.668;2023-02-15T07:02:54;98518.16;;;-0.02;100.00
24962;BME280;12992;50.884;13.668;2023-02-15T07:05:21;98504.09;;;-0.04;100.00
24962;BME280;12992;50.884;13.668;2023-02-15T07:07:47;98504.09;;;-0.04;100.00
24962;BME280;12992;50.884;13.668;2023-02-15T07:10:12;98512.84;;;0.07;100.00
24962;BME280;12992;50.884;13.668;2023-02-15T07:12:37;98525.13;;;0.17;100.00
24962;BME280;12992;50.884;13.668;2023-02-15T07:15:17;98518.13;;;0.24;100.00
24962;BME280;12992;50.884;13.668;2023-02-15T07:17:43;98520.00;;;0.32;100.00
24962;BME280;12992;50.884;13.668;2023-02-15T07:20:17;98530.28;;;0.45;100.00
24962;BME280;12992;50.884;13.668;2023-02-15T07:22:43;98526.28;;;0.49;100.00
24962;BME280;12992;50.884;13.668;2023-02-15T07:25:09;98559.06;;;0.93;100.00
24962;BME280;12992;50.884;13.668;2023-02-15T07:27:35;98568.84;;;1.19;100.00
24962;BME280;12992;50.884;13.668;2023-02-15T07:30:01;98560.81;;;1.27;100.00
24962;BME280;12992;50.884;13.668;2023-02-15T07:32:30;98556.44;;;1.34;100.00
24962;BME280;12992;50.884;13.668;2023-02-15T07:34:56;98539.16;;;1.28;100.00
24962;BME280;12992;50.884;13.668;2023-02-15T07:37:21;98588.16;;;1.79;100.00
24962;BME280;12992;50.884;13.668;2023-02-15T07:39:46;98603.22;;;2.21;100.00
24962;BME280;12992;50.884;13.668;2023-02-15T07:42:12;98606.47;;;2.55;100.00
24962;BME280;12992;50.884;13.668;2023-02-15T07:44:37;98611.50;;;2.98;100.00
24962;BME280;12992;50.884;13.668;2023-02-15T07:47:02;98652.78;;;3.98;100.00
24962;BME280;12992;50.884;13.668;2023-02-15T07:49:28;98651.09;;;5.23;94.93
24962;BME280;12992;50.884;13.668;2023-02-15T07:51:53;98673.38;;;6.53;89.55
24962;BME280;12992;50.884;13.668;2023-02-15T07:54:19;98677.63;;;8.00;83.75
24962;BME280;12992;50.884;13.668;2023-02-15T07:56:44;98666.53;;;9.20;76.40
24962;BME280;12992;50.884;13.668;2023-02-15T07:59:10;98642.22;;;9.70;72.42
24962;BME280;12992;50.884;13.668;2023-02-15T08:01:37;98615.31;;;10.25;69.94
24962;BME280;12992;50.884;13.668;2023-02-15T08:04:04;98614.50;;;10.68;66.12
24962;BME280;12992;50.884;13.668;2023-02-15T08:06:32;98637.19;;;11.72;65.61
24962;BME280;12992;50.884;13.668;2023-02-15T08:08:59;98612.50;;;11.97;64.99
24962;BME280;12992;50.884;13.668;2023-02-15T08:11:26;98586.50;;;11.94;64.27
24962;BME280;12992;50.884;13.668;2023-02-15T08:14:11;98580.97;;;12.24;63.05
24962;BME280;12992;50.884;13.668;2023-02-15T08:21:33;98559.72;;;12.26;62.10
24962;BME280;12992;50.884;13.668;2023-02-15T08:23:59;98572.56;;;12.72;61.23
24962;BME280;12992;50.884;13.668;2023-02-15T08:26:26;98472.31;;;11.91;60.48
24962;BME280;12992;50.884;13.668;2023-02-15T08:28:52;98480.69;;;11.78;61.55
24962;BME280;12992;50.884;13.668;2023-02-15T08:31:18;98441.25;;;11.09;62.90
24962;BME280;12992;50.884;13.668;2023-02-15T08:33:45;98464.50;;;10.81;64.78
24962;BME280;12992;50.884;13.668;2023-02-15T08:36:13;98444.69;;;10.86;64.22
24962;BME280;12992;50.884;13.668;2023-02-15T08:38:40;98466.38;;;11.11;64.08
24962;BME280;12992;50.884;13.668;2023-02-15T08:43:42;98518.25;;;12.17;62.94
24962;BME280;12992;50.884;13.668;2023-02-15T08:46:09;98497.00;;;12.08;62.81
24962;BME280;12992;50.884;13.668;2023-02-15T08:48:35;98467.25;;;11.53;64.20
24962;BME280;12992;50.884;13.668;2023-02-15T08:51:12;98420.66;;;10.83;65.42
24962;BME280;12992;50.884;13.668;2023-02-15T08:53:39;98397.59;;;10.12;66.25
24962;BME280;12992;50.884;13.668;2023-02-15T08:56:05;98390.41;;;9.81;66.68
24962;BME280;12992;50.884;13.668;2023-02-15T08:58:31;98391.88;;;9.58;68.87
24962;BME280;12992;50.884;13.668;2023-02-15T09:00:57;98393.16;;;9.56;69.57
24962;BME280;12992;50.884;13.668;2023-02-15T09:03:22;98388.47;;;9.13;70.40
24962;BME280;12992;50.884;13.668;2023-02-15T09:05:48;98338.41;;;8.26;72.61
24962;BME280;12992;50.884;13.668;2023-02-15T09:08:14;98345.75;;;7.61;75.54
24962;BME280;12992;50.884;13.668;2023-02-15T09:10:39;98342.63;;;7.31;78.17
24962;BME280;12992;50.884;13.668;2023-02-15T09:13:04;98348.91;;;7.12;81.12
24962;BME280;12992;50.884;13.668;2023-02-15T09:15:30;98367.25;;;7.09;80.79
24962;BME280;12992;50.884;13.668;2023-02-15T09:17:55;98358.72;;;6.99;82.03
24962;BME280;12992;50.884;13.668;2023-02-15T09:20:20;98373.91;;;6.94;82.38
24962;BME280;12992;50.884;13.668;2023-02-15T09:22:46;98373.25;;;6.85;85.25
24962;BME280;12992;50.884;13.668;2023-02-15T09:25:12;98358.00;;;6.58;84.91
24962;BME280;12992;50.884;13.668;2023-02-15T09:27:38;98375.31;;;6.63;86.47
24962;BME280;12992;50.884;13.668;2023-02-15T09:30:05;98372.34;;;6.51;86.36
24962;BME280;12992;50.884;13.668;2023-02-15T09:32:31;98384.44;;;6.56;87.61
24962;BME280;12992;50.884;13.668;2023-02-15T09:34:56;98399.47;;;6.71;88.15
24962;BME280;12992;50.884;13.668;2023-02-15T09:37:21;98395.53;;;6.74;86.00
24962;BME280;12992;50.884;13.668;2023-02-15T09:39:47;98404.91;;;6.78;88.67
24962;BME280;12992;50.884;13.668;2023-02-15T09:48:02;98421.19;;;7.04;89.25
24962;BME280;12992;50.884;13.668;2023-02-15T09:50:39;98406.59;;;6.92;87.75
24962;BME280;12992;50.884;13.668;2023-02-15T09:56:19;98420.59;;;7.09;89.65
24962;BME280;12992;50.884;13.668;2023-02-15T10:01:38;98438.53;;;7.43;88.55
24962;BME280;12992;50.884;13.668;2023-02-15T10:26:49;98464.16;;;14.69;62.21
24962;BME280;12992;50.884;13.668;2023-02-15T10:31:49;98436.97;;;14.46;64.41
24962;BME280;12992;50.884;13.668;2023-02-15T10:34:38;98485.31;;;15.18;64.25
24962;BME280;12992;50.884;13.668;2023-02-15T10:37:35;98440.53;;;14.90;62.30
24962;BME280;12992;50.884;13.668;2023-02-15T10:43:13;98438.09;;;15.16;63.00
24962;BME280;12992;50.884;13.668;2023-02-15T10:45:56;98454.06;;;15.73;62.11
24962;BME280;12992;50.884;13.668;2023-02-15T10:51:35;98460.41;;;16.58;59.87
24962;BME280;12992;50.884;13.668;2023-02-15T10:54:13;98384.56;;;15.45;62.21
24962;BME280;12992;50.884;13.668;2023-02-15T10:57:02;98425.94;;;16.35;60.02
24962;BME280;12992;50.884;13.668;2023-02-15T10:59:54;98472.97;;;17.89;56.37
24962;BME280;12992;50.884;13.668;2023-02-15T11:02:50;98458.84;;;18.67;54.41
24962;BME280;12992;50.884;13.668;2023-02-15T11:08:10;98405.06;;;18.49;57.09
24962;BME280;12992;50.884;13.668;2023-02-15T11:10:41;98371.03;;;17.94;57.38
24962;BME280;12992;50.884;13.668;2023-02-15T11:13:14;98386.00;;;18.73;56.39
24962;BME280;12992;50.884;13.668;2023-02-15T11:16:03;98378.28;;;18.60;58.76
24962;BME280;12992;50.884;13.668;2023-02-15T11:20:59;98384.31;;;18.72;57.85
24962;BME280;12992;50.884;13.668;2023-02-15T11:23:27;98359.34;;;18.28;59.32
24962;BME280;12992;50.884;13.668;2023-02-15T11:26:01;98357.59;;;18.67;56.83
24962;BME280;12992;50.884;13.668;2023-02-15T11:31:41;98289.19;;;17.85;55.28
24962;BME280;12992;50.884;13.668;2023-02-15T11:34:16;98272.16;;;17.42;54.42
24962;BME280;12992;50.884;13.668;2023-02-15T11:36:44;98238.47;;;16.58;55.01
24962;BME280;12992;50.884;13.668;2023-02-15T11:39:14;98245.63;;;16.44;54.82
24962;BME280;12992;50.884;13.668;2023-02-15T11:41:46;98252.19;;;16.38;55.61
24962;BME280;12992;50.884;13.668;2023-02-15T11:44:20;98242.97;;;15.92;56.13
24962;BME280;12992;50.884;13.668;2023-02-15T11:46:47;98252.03;;;15.92;56.86
24962;BME280;12992;50.884;13.668;2023-02-15T11:49:22;98229.94;;;15.72;58.31
24962;BME280;12992;50.884;13.668;2023-02-15T11:51:48;98239.44;;;15.59;58.65
24962;BME280;12992;50.884;13.668;2023-02-15T11:54:17;98238.88;;;15.57;60.80
24962;BME280;12992;50.884;13.668;2023-02-15T11:56:43;98257.44;;;15.77;63.11
24962;BME280;12992;50.884;13.668;2023-02-15T11:59:24;98253.53;;;15.68;63.41
24962;BME280;12992;50.884;13.668;2023-02-15T12:01:52;98258.22;;;15.72;62.36
24962;BME280;12992;50.884;13.668;2023-02-15T12:04:21;98203.13;;;15.05;63.13
24962;BME280;12992;50.884;13.668;2023-02-15T12:06:53;98260.66;;;15.64;64.01
24962;BME280;12992;50.884;13.668;2023-02-15T12:12:28;98206.50;;;15.12;63.71
24962;BME280;12992;50.884;13.668;2023-02-15T12:14:58;98216.59;;;15.06;65.91
24962;BME280;12992;50.884;13.668;2023-02-15T12:17:26;98225.41;;;15.13;65.22
24962;BME280;12992;50.884;13.668;2023-02-15T12:19:55;98221.44;;;14.94;66.54
24962;BME280;12992;50.884;13.668;2023-02-15T12:22:29;98223.44;;;15.04;66.56
24962;BME280;12992;50.884;13.668;2023-02-15T12:24:59;98201.56;;;14.82;66.18
24962;BME280;12992;50.884;13.668;2023-02-15T12:27:29;98197.53;;;14.89;65.69
24962;BME280;12992;50.884;13.668;2023-02-15T12:35:20;98218.09;;;15.66;62.62
24962;BME280;12992;50.884;13.668;2023-02-15T12:40:38;98211.78;;;15.71;60.63
24962;BME280;12992;50.884;13.668;2023-02-15T12:43:25;98206.63;;;15.74;63.07
24962;BME280;12992;50.884;13.668;2023-02-15T12:45:50;98201.13;;;15.74;61.66
24962;BME280;12992;50.884;13.668;2023-02-15T12:48:18;98189.31;;;15.79;60.35
24962;BME280;12992;50.884;13.668;2023-02-15T12:50:48;98157.81;;;15.44;59.15
24962;BME280;12992;50.884;13.668;2023-02-15T12:53:32;98136.63;;;15.29;59.82
24962;BME280;12992;50.884;13.668;2023-02-15T12:56:00;98126.88;;;15.07;62.06
24962;BME280;12992;50.884;13.668;2023-02-15T12:58:33;98122.31;;;14.80;64.08
24962;BME280;12992;50.884;13.668;2023-02-15T13:03:33;98101.91;;;14.34;64.00
24962;BME280;12992;50.884;13.668;2023-02-15T13:06:00;98111.31;;;14.43;63.91
24962;BME280;12992;50.884;13.668;2023-02-15T13:08:46;98132.66;;;14.68;65.43
24962;BME280;12992;50.884;13.668;2023-02-15T13:11:20;98129.59;;;14.64;65.62
24962;BME280;12992;50.884;13.668;2023-02-15T13:13:55;98122.19;;;14.65;63.56
24962;BME280;12992;50.884;13.668;2023-02-15T13:16:31;98135.00;;;14.91;61.50
24962;BME280;12992;50.884;13.668;2023-02-15T13:18:58;98123.25;;;14.96;62.71
24962;BME280;12992;50.884;13.668;2023-02-15T13:21:31;98114.97;;;14.91;61.81
24962;BME280;12992;50.884;13.668;2023-02-15T13:24:00;98099.69;;;14.63;64.48
24962;BME280;12992;50.884;13.668;2023-02-15T13:26:31;98115.53;;;14.56;67.45
24962;BME280;12992;50.884;13.668;2023-02-15T13:28:59;98092.31;;;14.31;65.28
24962;BME280;12992;50.884;13.668;2023-02-15T13:31:30;98081.31;;;13.99;66.56
24962;BME280;12992;50.884;13.668;2023-02-15T13:34:12;98081.13;;;13.79;67.03
24962;BME280;12992;50.884;13.668;2023-02-15T13:37:14;98091.75;;;13.75;67.93
24962;BME280;12992;50.884;13.668;2023-02-15T13:42:20;98084.00;;;13.23;70.00
24962;BME280;12992;50.884;13.668;2023-02-15T13:45:13;98071.84;;;13.14;69.57
24962;BME280;12992;50.884;13.668;2023-02-15T13:50:59;98070.69;;;13.10;68.55
24962;BME280;12992;50.884;13.668;2023-02-15T13:53:24;98070.91;;;12.87;70.10
24962;BME280;12992;50.884;13.668;2023-02-15T14:01:20;98076.41;;;12.70;69.63
24962;BME280;12992;50.884;13.668;2023-02-15T14:06:45;98058.25;;;12.25;70.94
24962;BME280;12992;50.884;13.668;2023-02-15T14:09:29;98062.38;;;12.28;70.39
24962;BME280;12992;50.884;13.668;2023-02-15T14:15:18;98071.22;;;12.01;73.38
24962;BME280;12992;50.884;13.668;2023-02-15T14:18:25;98066.91;;;11.88;74.25
24962;BME280;12992;50.884;13.668;2023-02-15T14:23:38;98048.25;;;11.69;72.76
24962;BME280;12992;50.884;13.668;2023-02-15T14:26:32;98057.16;;;11.64;72.88
24962;BME280;12992;50.884;13.668;2023-02-15T14:29:41;98036.75;;;11.38;74.53
24962;BME280;12992;50.884;13.668;2023-02-15T14:32:29;98064.38;;;11.42;74.51
24962;BME280;12992;50.884;13.668;2023-02-15T14:35:00;98069.66;;;11.48;75.45
24962;BME280;12992;50.884;13.668;2023-02-15T14:37:36;98050.19;;;11.28;75.38
24962;BME280;12992;50.884;13.668;2023-02-15T14:40:28;98066.66;;;11.33;74.88
24962;BME280;12992;50.884;13.668;2023-02-15T14:48:32;98043.38;;;11.02;74.43
24962;BME280;12992;50.884;13.668;2023-02-15T14:50:59;98029.00;;;10.66;74.49
24962;BME280;12992;50.884;13.668;2023-02-15T14:58:56;98053.13;;;10.16;80.22
24962;BME280;12992;50.884;13.668;2023-02-15T15:01:27;98048.38;;;10.00;80.71
24962;BME280;12992;50.884;13.668;2023-02-15T15:03:57;98050.72;;;9.84;82.10
24962;BME280;12992;50.884;13.668;2023-02-15T15:06:27;98066.28;;;9.77;81.75